createdAt,value
2022-09-07T00:00:57.074Z,100482.00
2022-09-07T00:03:24.176Z,100486.25
2022-09-07T00:05:51.933Z,100487.06
2022-09-07T00:08:22.492Z,100483.53
2022-09-07T00:10:56.099Z,100472.72
2022-09-07T00:13:24.529Z,100472.66
2022-09-07T00:15:51.280Z,100470.84
2022-09-07T00:18:18.056Z,100470.97
2022-09-07T00:20:44.745Z,100457.25
2022-09-07T00:23:11.745Z,100455.28
2022-09-07T00:25:39.743Z,100470.00
2022-09-07T00:28:08.016Z,100474.56
2022-09-07T00:30:40.293Z,100482.91
2022-09-07T00:33:06.799Z,100472.72
2022-09-07T00:35:33.346Z,100479.44
2022-09-07T00:37:59.820Z,100475.50
2022-09-07T00:40:26.470Z,100471.72
2022-09-07T00:42:52.976Z,100497.00
2022-09-07T00:45:21.415Z,100510.53
2022-09-07T00:47:51.002Z,100511.47
2022-09-07T00:50:38.104Z,100504.03
2022-09-07T00:53:19.679Z,100495.38
2022-09-07T00:55:49.325Z,100513.91
2022-09-07T00:58:17.098Z,100511.19
2022-09-07T01:00:46.291Z,100526.41
2022-09-07T01:03:15.063Z,100529.28
2022-09-07T01:05:46.454Z,100545.25
2022-09-07T01:08:14.016Z,100586.59
2022-09-07T01:10:40.782Z,100616.09
2022-09-07T01:13:07.755Z,100644.88
2022-09-07T01:15:57.968Z,100653.94
2022-09-07T01:18:29.207Z,100653.88
2022-09-07T01:21:13.675Z,100641.56
2022-09-07T01:24:24.540Z,100656.72
2022-09-07T01:27:18.923Z,100662.88
2022-09-07T01:29:57.508Z,100654.88
2022-09-07T01:32:55.062Z,100669.06
2022-09-07T01:35:34.258Z,100670.06
2022-09-07T01:38:27.558Z,100678.94
2022-09-07T01:41:16.555Z,100684.78
2022-09-07T01:43:47.377Z,100683.88
2022-09-07T01:46:46.159Z,100679.75
2022-09-07T01:49:22.668Z,100677.47
2022-09-07T01:51:55.746Z,100673.16
2022-09-07T01:54:38.188Z,100679.97
2022-09-07T01:57:13.385Z,100681.78
2022-09-07T01:59:45.426Z,100680.03
2022-09-07T02:02:17.519Z,100687.91
2022-09-07T02:04:57.146Z,100695.69
2022-09-07T02:07:53.138Z,100688.81
2022-09-07T02:10:27.500Z,100679.88
2022-09-07T02:13:56.652Z,100687.56
2022-09-07T02:16:25.827Z,100690.16
2022-09-07T02:18:59.911Z,100670.69
2022-09-07T02:21:33.737Z,100669.00
2022-09-07T02:24:18.101Z,100662.19
2022-09-07T02:26:49.449Z,100645.47
2022-09-07T02:29:15.976Z,100631.03
2022-09-07T02:31:42.539Z,100644.75
2022-09-07T02:34:09.189Z,100639.44
2022-09-07T02:36:44.401Z,100650.59
2022-09-07T02:39:10.952Z,100654.94
2022-09-07T02:41:39.538Z,100655.88
2022-09-07T02:44:14.170Z,100659.94
2022-09-07T02:46:57.449Z,100651.38
2022-09-07T02:49:39.384Z,100657.09
2022-09-07T02:52:30.413Z,100661.69
2022-09-07T02:55:28.127Z,100653.09
2022-09-07T02:58:35.214Z,100647.63
2022-09-07T03:01:10.949Z,100643.66
2022-09-07T03:04:09.750Z,100645.97
2022-09-07T03:06:43.724Z,100635.72
2022-09-07T03:09:16.418Z,100636.03
2022-09-07T03:11:43.106Z,100626.22
2022-09-07T03:14:17.444Z,100611.06
2022-09-07T03:16:44.458Z,100609.03
2022-09-07T03:19:11.050Z,100604.81
2022-09-07T03:21:37.565Z,100611.66
2022-09-07T03:24:04.461Z,100590.69
2022-09-07T03:26:30.979Z,100568.88
2022-09-07T03:28:57.511Z,100557.31
2022-09-07T03:31:24.148Z,100553.06
2022-09-07T03:33:50.696Z,100554.44
2022-09-07T03:36:17.257Z,100549.38
2022-09-07T03:38:44.169Z,100533.72
2022-09-07T03:41:10.722Z,100540.03
2022-09-07T03:43:37.197Z,100514.19
2022-09-07T03:46:06.139Z,100515.97
2022-09-07T03:48:34.763Z,100517.78
2022-09-07T03:51:04.166Z,100518.72
2022-09-07T03:53:39.122Z,100524.34
2022-09-07T03:56:09.106Z,100526.09
2022-09-07T03:58:36.625Z,100524.56
2022-09-07T04:01:08.845Z,100515.53
2022-09-07T04:03:35.838Z,100507.59
2022-09-07T04:06:03.511Z,100510.41
2022-09-07T04:08:32.382Z,100512.88
2022-09-07T04:11:01.017Z,100515.84
2022-09-07T04:13:29.078Z,100500.56
2022-09-07T04:15:56.247Z,100504.63
2022-09-07T04:18:23.649Z,100499.34
2022-09-07T04:20:51.070Z,100486.53
2022-09-07T04:23:20.794Z,100499.47
2022-09-07T04:25:52.171Z,100489.81
2022-09-07T04:28:20.867Z,100501.00
2022-09-07T04:30:47.840Z,100510.34
2022-09-07T04:33:15.428Z,100525.84
2022-09-07T04:35:43.350Z,100524.16
2022-09-07T04:38:15.221Z,100511.63
2022-09-07T04:40:42.068Z,100507.38
2022-09-07T04:43:09.582Z,100518.34
2022-09-07T04:45:37.226Z,100514.53
2022-09-07T04:48:04.594Z,100511.25
2022-09-07T04:50:31.730Z,100517.16
2022-09-07T04:52:58.210Z,100524.63
2022-09-07T04:55:24.765Z,100529.00
2022-09-07T04:57:51.316Z,100524.47
2022-09-07T05:00:18.105Z,100505.91
2022-09-07T05:02:44.728Z,100516.47
2022-09-07T05:05:11.323Z,100518.63
2022-09-07T05:07:37.874Z,100515.34
2022-09-07T05:10:04.790Z,100503.75
2022-09-07T05:12:31.534Z,100514.19
2022-09-07T05:14:58.045Z,100509.09
2022-09-07T05:17:24.700Z,100510.88
2022-09-07T05:19:51.235Z,100512.94
2022-09-07T05:22:17.869Z,100505.19
2022-09-07T05:24:44.556Z,100512.03
2022-09-07T05:27:11.171Z,100515.41
2022-09-07T05:32:24.274Z,100523.41
2022-09-07T05:34:52.882Z,100521.50
2022-09-07T05:37:19.949Z,100522.25
2022-09-07T05:39:46.848Z,100517.31
2022-09-07T05:42:13.736Z,100523.41
2022-09-07T05:47:09.659Z,100522.66
2022-09-07T05:49:36.230Z,100515.53
2022-09-07T05:52:03.034Z,100522.06
2022-09-07T05:54:29.575Z,100528.56
2022-09-07T05:56:56.076Z,100529.31
2022-09-07T05:59:22.621Z,100537.13
2022-09-07T06:01:49.237Z,100543.66
2022-09-07T06:04:15.844Z,100526.16
2022-09-07T06:06:47.805Z,100535.09
2022-09-07T06:09:29.852Z,100536.84
2022-09-07T06:11:57.212Z,100529.50
2022-09-07T06:14:23.786Z,100530.47
2022-09-07T06:16:50.655Z,100531.78
2022-09-07T06:19:17.172Z,100533.38
2022-09-07T06:21:43.691Z,100534.78
2022-09-07T06:24:10.247Z,100535.16
2022-09-07T06:26:36.779Z,100535.09
2022-09-07T06:29:03.830Z,100550.53
2022-09-07T06:31:30.719Z,100558.31
2022-09-07T06:33:57.444Z,100560.03
2022-09-07T06:36:27.263Z,100550.78
2022-09-07T06:38:58.848Z,100564.09
2022-09-07T06:44:16.578Z,100563.59
2022-09-07T06:49:29.595Z,100572.63
2022-09-07T06:51:56.174Z,100568.00
2022-09-07T06:57:09.860Z,100569.38
2022-09-07T06:59:37.326Z,100568.84
2022-09-07T07:02:15.417Z,100570.81
2022-09-07T07:04:44.179Z,100576.06
2022-09-07T07:07:12.407Z,100582.41
2022-09-07T07:09:39.618Z,100575.81
2022-09-07T07:12:06.298Z,100561.31
2022-09-07T07:14:34.653Z,100574.28
2022-09-07T07:17:02.808Z,100580.16
2022-09-07T07:19:29.482Z,100577.41
2022-09-07T07:24:42.668Z,100578.94
2022-09-07T07:27:09.149Z,100585.97
2022-09-07T07:29:35.696Z,100598.91
2022-09-07T07:32:02.455Z,100593.44
2022-09-07T07:34:29.335Z,100589.75
2022-09-07T07:36:55.840Z,100581.91
2022-09-07T07:42:09.114Z,100582.25
2022-09-07T07:44:35.652Z,100586.91
2022-09-07T07:47:02.696Z,100592.66
2022-09-07T07:49:29.230Z,100593.22
2022-09-07T07:54:43.274Z,100595.16
2022-09-07T07:57:10.323Z,100581.38
2022-09-07T07:59:37.027Z,100585.28
2022-09-07T08:02:09.071Z,100600.84
2022-09-07T08:04:36.020Z,100589.00
2022-09-07T08:07:09.259Z,100605.28
2022-09-07T08:09:44.247Z,100593.25
2022-09-07T08:12:19.341Z,100605.13
2022-09-07T08:14:47.957Z,100600.38
2022-09-07T08:17:17.538Z,100615.28
2022-09-07T08:19:44.937Z,100617.47
2022-09-07T08:22:12.496Z,100622.00
2022-09-07T08:24:39.210Z,100623.94
2022-09-07T08:27:05.755Z,100621.69
2022-09-07T08:29:34.580Z,100620.88
2022-09-07T08:32:02.600Z,100626.63
2022-09-07T08:34:29.082Z,100625.66
2022-09-07T08:36:55.595Z,100635.34
2022-09-07T08:39:22.032Z,100638.22
2022-09-07T08:42:09.760Z,100640.22
2022-09-07T08:44:51.017Z,100631.00
2022-09-07T08:47:32.100Z,100632.69
2022-09-07T08:50:13.583Z,100637.34
2022-09-07T08:53:03.110Z,100632.69
2022-09-07T08:55:38.709Z,100635.66
2022-09-07T08:58:48.345Z,100638.31
2022-09-07T09:01:36.521Z,100636.25
2022-09-07T09:04:21.301Z,100630.69
2022-09-07T09:07:10.361Z,100637.03
2022-09-07T09:09:49.079Z,100637.28
2022-09-07T09:12:36.827Z,100642.25
2022-09-07T09:15:17.856Z,100644.69
2022-09-07T09:18:08.138Z,100650.00
2022-09-07T09:20:48.391Z,100639.94
2022-09-07T09:23:16.287Z,100643.47
2022-09-07T09:25:50.992Z,100650.41
2022-09-07T09:28:17.874Z,100655.31
2022-09-07T09:30:44.282Z,100648.31
2022-09-07T09:33:21.673Z,100664.50
2022-09-07T09:35:50.849Z,100661.78
2022-09-07T09:38:29.484Z,100661.34
2022-09-07T09:40:59.609Z,100657.34
2022-09-07T09:43:32.381Z,100650.56
2022-09-07T09:46:15.893Z,100658.41
2022-09-07T09:48:42.737Z,100658.41
2022-09-07T09:54:07.661Z,100670.16
2022-09-07T09:56:43.141Z,100672.88
2022-09-07T10:05:35.900Z,100663.81
2022-09-07T10:08:14.701Z,100651.13
2022-09-07T10:11:03.902Z,100669.53
2022-09-07T10:13:42.532Z,100653.88
2022-09-07T10:16:10.562Z,100655.34
2022-09-07T10:18:59.429Z,100657.44
2022-09-07T10:21:32.258Z,100651.38
2022-09-07T10:23:59.918Z,100648.44
2022-09-07T10:26:28.434Z,100643.13
2022-09-07T10:29:28.696Z,100648.19
2022-09-07T10:32:07.318Z,100645.53
2022-09-07T10:35:01.426Z,100645.72
2022-09-07T10:37:31.441Z,100636.56
2022-09-07T10:40:25.049Z,100627.44
2022-09-07T10:45:59.654Z,100624.97
2022-09-07T10:48:54.462Z,100623.94
2022-09-07T10:51:37.732Z,100620.97
2022-09-07T10:54:52.272Z,100614.59
2022-09-07T10:57:37.116Z,100610.84
2022-09-07T11:00:14.515Z,100613.78
2022-09-07T11:03:27.369Z,100615.63
2022-09-07T11:06:22.032Z,100608.44
2022-09-07T11:12:20.769Z,100615.88
2022-09-07T11:15:12.814Z,100618.97
2022-09-07T11:17:53.002Z,100622.41
2022-09-07T11:20:26.227Z,100615.69
2022-09-07T11:23:04.466Z,100619.69
2022-09-07T11:25:40.975Z,100610.16
2022-09-07T11:28:24.195Z,100596.91
2022-09-07T11:31:00.024Z,100612.72
2022-09-07T11:33:34.339Z,100607.69
2022-09-07T11:36:16.286Z,100607.34
2022-09-07T11:38:52.144Z,100603.03
2022-09-07T11:41:31.698Z,100597.91
2022-09-07T11:44:04.424Z,100601.50
2022-09-07T11:46:42.254Z,100595.59
2022-09-07T11:49:20.372Z,100604.09
2022-09-07T11:51:53.923Z,100602.44
2022-09-07T11:54:48.725Z,100595.50
2022-09-07T11:57:15.633Z,100604.16
2022-09-07T12:00:10.945Z,100606.44
2022-09-07T12:03:06.752Z,100607.63
2022-09-07T12:05:45.115Z,100604.75
2022-09-07T12:08:36.506Z,100599.16
2022-09-07T12:11:21.348Z,100592.06
2022-09-07T12:14:18.872Z,100595.03
2022-09-07T12:17:08.306Z,100602.16
2022-09-07T12:19:35.231Z,100597.00
2022-09-07T12:22:01.929Z,100599.31
2022-09-07T12:24:42.239Z,100598.16
2022-09-07T12:27:22.066Z,100600.88
2022-09-07T12:29:57.852Z,100600.25
2022-09-07T12:32:58.182Z,100594.66
2022-09-07T12:35:28.620Z,100586.19
2022-09-07T12:38:03.167Z,100584.81
2022-09-07T12:40:29.713Z,100589.19
2022-09-07T12:43:14.479Z,100586.69
2022-09-07T12:45:41.560Z,100587.59
2022-09-07T12:48:16.789Z,100592.47
2022-09-07T12:51:02.298Z,100588.22
2022-09-07T12:53:56.972Z,100563.28
2022-09-07T12:56:43.176Z,100564.50
2022-09-07T12:59:29.498Z,100571.94
2022-09-07T13:02:33.039Z,100575.22
2022-09-07T13:05:34.037Z,100560.25
2022-09-07T13:08:16.042Z,100569.66
2022-09-07T13:10:43.642Z,100573.28
2022-09-07T13:13:16.063Z,100567.00
2022-09-07T13:15:51.626Z,100566.53
2022-09-07T13:18:27.297Z,100559.94
2022-09-07T13:21:08.831Z,100557.97
2022-09-07T13:23:37.892Z,100553.41
2022-09-07T13:26:06.913Z,100557.72
2022-09-07T13:28:40.333Z,100546.50
2022-09-07T13:31:19.383Z,100549.84
2022-09-07T13:33:48.682Z,100553.91
2022-09-07T13:36:25.738Z,100564.81
2022-09-07T13:38:53.795Z,100561.94
2022-09-07T13:41:34.753Z,100555.16
2022-09-07T13:44:03.789Z,100545.25
2022-09-07T13:46:47.146Z,100559.78
2022-09-07T13:49:25.553Z,100552.59
2022-09-07T13:52:04.177Z,100554.44
2022-09-07T13:54:37.059Z,100550.22
2022-09-07T13:57:25.766Z,100552.09
2022-09-07T13:59:52.595Z,100542.66
2022-09-07T14:02:35.438Z,100547.78
2022-09-07T14:05:02.967Z,100549.44
2022-09-07T14:07:31.415Z,100555.56
2022-09-07T14:10:28.198Z,100553.97
2022-09-07T14:13:15.019Z,100545.72
2022-09-07T14:15:44.461Z,100552.69
2022-09-07T14:18:12.249Z,100551.06
2022-09-07T14:20:46.144Z,100544.09
2022-09-07T14:23:19.264Z,100539.38
2022-09-07T14:28:37.184Z,100533.44
2022-09-07T14:31:05.821Z,100533.44
2022-09-07T14:33:32.858Z,100539.09
2022-09-07T14:35:59.558Z,100531.56
2022-09-07T14:41:19.402Z,100532.69
2022-09-07T14:43:56.767Z,100530.91
2022-09-07T14:46:27.612Z,100537.44
2022-09-07T14:49:00.176Z,100528.66
2022-09-07T14:51:36.095Z,100536.66
2022-09-07T14:54:07.738Z,100538.47
2022-09-07T14:56:41.904Z,100530.59
2022-09-07T14:59:34.836Z,100535.56
2022-09-07T15:02:19.843Z,100533.13
2022-09-07T15:04:47.405Z,100522.75
2022-09-07T15:07:36.665Z,100531.47
2022-09-07T15:10:23.254Z,100532.81
2022-09-07T15:13:00.122Z,100522.41
2022-09-07T15:15:41.119Z,100521.41
2022-09-07T15:18:42.820Z,100520.88
2022-09-07T15:21:09.241Z,100509.69
2022-09-07T15:23:35.654Z,100516.75
2022-09-07T15:26:02.386Z,100515.72
2022-09-07T15:34:20.542Z,100527.31
2022-09-07T15:36:52.483Z,100523.28
2022-09-07T15:39:25.280Z,100523.38
2022-09-07T15:41:52.754Z,100521.72
2022-09-07T15:44:22.985Z,100518.34
2022-09-07T15:49:40.119Z,100527.78
2022-09-07T15:52:08.572Z,100520.41
2022-09-07T15:54:37.078Z,100520.53
2022-09-07T15:59:52.262Z,100525.75
2022-09-07T16:05:07.780Z,100523.84
2022-09-07T16:10:21.314Z,100528.84
2022-09-07T16:13:10.511Z,100521.66
2022-09-07T16:15:34.663Z,100509.88
2022-09-07T16:18:02.212Z,100507.81
2022-09-07T16:20:31.921Z,100504.38
2022-09-07T16:23:15.507Z,100516.75
2022-09-07T16:25:43.371Z,100496.16
2022-09-07T16:28:10.898Z,100495.63
2022-09-07T16:30:40.662Z,100490.69
2022-09-07T16:33:07.521Z,100485.13
2022-09-07T16:35:34.267Z,100486.22
2022-09-07T16:40:50.090Z,100474.34
2022-09-07T16:43:17.001Z,100471.56
2022-09-07T16:48:31.406Z,100481.78
2022-09-07T16:51:01.906Z,100476.59
2022-09-07T16:53:31.801Z,100485.34
2022-09-07T16:56:06.972Z,100488.97
2022-09-07T16:58:36.725Z,100493.09
2022-09-07T17:01:07.819Z,100479.50
2022-09-07T17:03:35.548Z,100488.34
2022-09-07T17:06:03.532Z,100482.47
2022-09-07T17:08:30.093Z,100481.69
2022-09-07T17:11:10.594Z,100465.88
2022-09-07T17:13:38.813Z,100476.81
2022-09-07T17:16:33.051Z,100479.13
2022-09-07T17:21:51.739Z,100471.75
2022-09-07T17:24:19.678Z,100472.91
2022-09-07T17:26:46.357Z,100463.38
2022-09-07T17:29:13.067Z,100473.53
2022-09-07T17:34:26.723Z,100482.63
2022-09-07T17:36:53.278Z,100482.78
2022-09-07T17:39:20.012Z,100490.28
2022-09-07T17:41:52.604Z,100476.41
2022-09-07T17:44:19.382Z,100477.53
2022-09-07T17:46:46.198Z,100474.31
2022-09-07T17:49:14.491Z,100467.31
2022-09-07T17:51:41.357Z,100465.47
2022-09-07T17:54:11.569Z,100478.47
2022-09-07T17:56:40.108Z,100481.19
2022-09-07T18:01:56.549Z,100481.34
2022-09-07T18:04:23.799Z,100488.69
2022-09-07T18:06:51.019Z,100486.03
2022-09-07T18:09:19.494Z,100488.03
2022-09-07T18:11:47.688Z,100490.44
2022-09-07T18:14:15.456Z,100483.56
2022-09-07T18:16:43.240Z,100480.53
2022-09-07T18:19:11.658Z,100478.06
2022-09-07T18:21:41.026Z,100486.72
2022-09-07T18:24:13.571Z,100493.88
2022-09-07T18:26:40.951Z,100486.09
2022-09-07T18:29:25.833Z,100495.94
2022-09-07T18:31:54.215Z,100497.91
2022-09-07T18:34:20.869Z,100492.78
2022-09-07T18:36:47.481Z,100498.03
2022-09-07T18:39:14.051Z,100497.91
2022-09-07T18:41:40.845Z,100499.44
2022-09-07T18:45:27.342Z,100498.25
2022-09-07T18:46:54.183Z,100493.38
2022-09-07T18:49:20.830Z,100503.50
2022-09-07T18:54:33.742Z,100491.84
2022-09-07T18:57:00.427Z,100498.63
2022-09-07T18:59:26.936Z,100508.31
2022-09-07T19:01:54.119Z,100502.88
2022-09-07T19:04:21.597Z,100501.53
2022-09-07T19:06:48.102Z,100497.00
2022-09-07T19:09:14.587Z,100497.06
2022-09-07T19:11:42.283Z,100498.84
2022-09-07T19:14:09.089Z,100494.78
2022-09-07T19:16:36.731Z,100486.81
2022-09-07T19:19:06.402Z,100486.38
2022-09-07T19:21:35.734Z,100481.56
2022-09-07T19:24:06.465Z,100485.00
2022-09-07T19:26:35.737Z,100481.81
2022-09-07T19:29:04.315Z,100487.66
2022-09-07T19:31:31.611Z,100487.88
2022-09-07T19:33:59.903Z,100494.13
2022-09-07T19:36:30.501Z,100492.44
2022-09-07T19:38:57.193Z,100493.16
2022-09-07T19:41:23.904Z,100490.31
2022-09-07T19:43:50.646Z,100482.91
2022-09-07T19:46:22.728Z,100482.50
2022-09-07T19:48:51.285Z,100474.53
2022-09-07T19:51:18.017Z,100463.91
2022-09-07T19:53:46.689Z,100477.41
2022-09-07T19:56:15.914Z,100474.03
2022-09-07T19:58:43.870Z,100473.22
2022-09-07T20:01:17.120Z,100478.53
2022-09-07T20:03:46.619Z,100473.94
2022-09-07T20:06:14.721Z,100473.13
2022-09-07T20:08:42.626Z,100464.13
2022-09-07T20:11:11.872Z,100455.03
2022-09-07T20:13:39.375Z,100463.75
2022-09-07T20:16:11.310Z,100454.72
2022-09-07T20:18:38.301Z,100446.41
2022-09-07T20:21:06.618Z,100441.97
2022-09-07T20:23:34.857Z,100448.06
2022-09-07T20:26:04.195Z,100442.78
2022-09-07T20:28:31.170Z,100449.97
2022-09-07T20:30:57.853Z,100437.47
2022-09-07T20:33:24.667Z,100431.09
2022-09-07T20:35:51.572Z,100419.50
2022-09-07T20:38:21.003Z,100424.66
2022-09-07T20:40:54.538Z,100422.88
2022-09-07T20:43:21.663Z,100417.34
2022-09-07T20:45:48.269Z,100416.56
2022-09-07T20:48:15.234Z,100414.88
2022-09-07T20:50:42.009Z,100413.84
2022-09-07T20:53:08.797Z,100409.31
2022-09-07T20:55:35.953Z,100412.38
2022-09-07T20:58:03.058Z,100413.75
2022-09-07T21:00:29.585Z,100406.41
2022-09-07T21:02:56.583Z,100405.16
2022-09-07T21:05:23.029Z,100405.91
2022-09-07T21:07:49.472Z,100411.31
2022-09-07T21:10:15.970Z,100407.72
2022-09-07T21:12:42.498Z,100409.41
2022-09-07T21:15:09.798Z,100414.81
2022-09-07T21:17:36.265Z,100412.88
2022-09-07T21:20:03.105Z,100415.41
2022-09-07T21:22:30.800Z,100418.28
2022-09-07T21:24:57.270Z,100410.56
2022-09-07T21:27:24.216Z,100412.13
2022-09-07T21:29:51.081Z,100412.72
2022-09-07T21:32:17.559Z,100407.75
2022-09-07T21:34:43.986Z,100415.47
2022-09-07T21:37:10.407Z,100417.84
2022-09-07T21:39:37.043Z,100413.22
2022-09-07T21:42:04.384Z,100423.44
2022-09-07T21:44:30.801Z,100418.31
2022-09-07T21:46:57.347Z,100428.88
2022-09-07T21:49:23.861Z,100423.81
2022-09-07T21:51:50.252Z,100418.41
2022-09-07T21:54:16.707Z,100419.91
2022-09-07T21:56:46.499Z,100420.25
2022-09-07T21:59:13.875Z,100421.13
2022-09-07T22:01:40.812Z,100414.00
2022-09-07T22:04:07.443Z,100413.31
2022-09-07T22:06:34.717Z,100414.53
2022-09-07T22:09:02.214Z,100409.03
2022-09-07T22:11:29.480Z,100412.44
2022-09-07T22:13:58.090Z,100406.06
2022-09-07T22:16:25.181Z,100399.34
2022-09-07T22:18:52.292Z,100395.31
2022-09-07T22:21:21.883Z,100399.69
2022-09-07T22:23:51.173Z,100403.59
2022-09-07T22:26:20.572Z,100385.06
2022-09-07T22:28:46.925Z,100403.38
2022-09-07T22:31:22.468Z,100407.06
2022-09-07T22:33:50.976Z,100406.47
2022-09-07T22:36:20.546Z,100399.81
2022-09-07T22:38:49.634Z,100406.56
2022-09-07T22:41:19.118Z,100392.69
2022-09-07T22:43:46.068Z,100395.56
2022-09-07T22:46:13.800Z,100394.25
2022-09-07T22:48:41.317Z,100390.72
2022-09-07T22:51:08.774Z,100386.91
2022-09-07T22:53:37.144Z,100396.22
2022-09-07T22:56:18.491Z,100383.69
2022-09-07T22:58:47.217Z,100373.31
2022-09-07T23:01:13.818Z,100375.47
2022-09-07T23:03:40.356Z,100381.19
2022-09-07T23:06:06.966Z,100371.28
2022-09-07T23:08:33.384Z,100373.16
2022-09-07T23:11:05.103Z,100370.41
2022-09-07T23:13:32.874Z,100357.16
2022-09-07T23:16:04.605Z,100353.59
2022-09-07T23:18:31.540Z,100351.72
2022-09-07T23:21:02.258Z,100352.75
2022-09-07T23:23:29.480Z,100341.25
2022-09-07T23:25:55.966Z,100350.13
2022-09-07T23:28:22.521Z,100341.34
2022-09-07T23:30:50.738Z,100342.97
2022-09-07T23:33:17.690Z,100335.16
2022-09-07T23:35:54.685Z,100334.34
2022-09-07T23:38:21.522Z,100323.19
2022-09-07T23:40:48.085Z,100337.78
2022-09-07T23:43:14.649Z,100325.56
2022-09-07T23:45:41.042Z,100327.16
2022-09-07T23:48:07.555Z,100316.59
2022-09-07T23:50:34.013Z,100314.03
2022-09-07T23:53:00.666Z,100319.06
2022-09-07T23:55:27.140Z,100317.31
2022-09-07T23:57:53.569Z,100309.09
